createdAt,value
2016-05-09T00:00:39.231Z,0
2016-05-09T00:01:39.296Z,0
2016-05-09T00:02:38.457Z,0
2016-05-09T00:03:39.006Z,0
2016-05-09T00:04:38.884Z,0
2016-05-09T00:05:38.557Z,0
2016-05-09T00:06:39.139Z,0
2016-05-09T00:07:38.642Z,0
2016-05-09T00:08:39.363Z,0
2016-05-09T00:09:39.303Z,0
2016-05-09T00:10:38.603Z,0
2016-05-09T00:11:38.714Z,0
2016-05-09T00:12:39.436Z,0
2016-05-09T00:13:38.486Z,0
2016-05-09T00:14:39.020Z,0
2016-05-09T00:15:38.881Z,0
2016-05-09T00:16:52.087Z,0
2016-05-09T00:17:38.371Z,0
2016-05-09T00:18:38.624Z,0
2016-05-09T00:19:38.845Z,0
2016-05-09T00:20:38.302Z,0
2016-05-09T00:21:38.461Z,0
2016-05-09T00:22:38.947Z,0
2016-05-09T00:23:38.247Z,0
2016-05-09T00:24:38.905Z,0
2016-05-09T00:25:37.940Z,0
2016-05-09T00:26:38.973Z,0
2016-05-09T00:27:38.446Z,0
2016-05-09T00:28:39.666Z,0
2016-05-09T00:29:37.794Z,0
2016-05-09T00:30:38.860Z,0
2016-05-09T00:31:38.362Z,0
2016-05-09T00:32:38.599Z,0
2016-05-09T00:33:39.618Z,0
2016-05-09T00:34:39.042Z,0
2016-05-09T00:35:38.092Z,0
2016-05-09T00:36:38.266Z,0
2016-05-09T00:37:38.003Z,0
2016-05-09T00:38:37.725Z,0
2016-05-09T00:39:38.915Z,0
2016-05-09T00:40:37.840Z,0
2016-05-09T00:41:37.748Z,0
2016-05-09T00:42:38.798Z,0
2016-05-09T00:43:38.817Z,0
2016-05-09T00:44:38.226Z,0
2016-05-09T00:45:38.383Z,0
2016-05-09T00:46:38.262Z,0
2016-05-09T00:47:37.795Z,0
2016-05-09T00:48:37.939Z,0
2016-05-09T00:49:38.832Z,0
2016-05-09T00:50:38.054Z,0
2016-05-09T00:51:37.619Z,0
2016-05-09T00:52:37.872Z,0
2016-05-09T00:53:37.405Z,0
2016-05-09T00:54:37.299Z,0
2016-05-09T00:55:37.849Z,0
2016-05-09T00:56:37.585Z,0
2016-05-09T00:57:37.651Z,0
2016-05-09T00:58:37.935Z,0
2016-05-09T00:59:37.844Z,0
2016-05-09T01:00:38.065Z,0
2016-05-09T01:01:37.880Z,0
2016-05-09T01:02:37.336Z,0
2016-05-09T01:03:37.963Z,0
2016-05-09T01:04:38.310Z,0
2016-05-09T01:05:37.673Z,0
2016-05-09T01:06:37.940Z,0
2016-05-09T01:07:37.709Z,0
2016-05-09T01:08:37.711Z,0
2016-05-09T01:09:37.215Z,0
2016-05-09T01:10:37.905Z,0
2016-05-09T01:11:38.001Z,0
2016-05-09T01:12:38.191Z,0
2016-05-09T01:13:37.881Z,0
2016-05-09T01:14:37.055Z,0
2016-05-09T01:15:37.731Z,0
2016-05-09T01:16:37.109Z,0
2016-05-09T01:17:51.564Z,0
2016-05-09T01:18:37.364Z,0
2016-05-09T01:19:37.194Z,0
2016-05-09T01:20:37.494Z,0
2016-05-09T01:21:37.261Z,0
2016-05-09T01:22:37.297Z,0
2016-05-09T01:23:37.924Z,0
2016-05-09T01:24:36.958Z,0
2016-05-09T01:25:36.851Z,0
2016-05-09T01:26:37.041Z,0
2016-05-09T01:27:37.247Z,0
2016-05-09T01:28:36.906Z,0
2016-05-09T01:29:37.033Z,0
2016-05-09T01:30:36.927Z,0
2016-05-09T01:31:37.195Z,0
2016-05-09T01:32:36.916Z,0
2016-05-09T01:33:36.576Z,0
2016-05-09T01:34:36.719Z,0
2016-05-09T01:35:38.253Z,0
2016-05-09T01:36:37.568Z,0
2016-05-09T01:37:36.554Z,0
2016-05-09T01:38:37.246Z,0
2016-05-09T01:39:36.718Z,0
2016-05-09T01:40:38.048Z,0
2016-05-09T01:41:37.066Z,0
2016-05-09T01:42:36.803Z,0
2016-05-09T01:43:36.570Z,0
2016-05-09T01:44:36.934Z,0
2016-05-09T01:45:36.951Z,0
2016-05-09T01:46:37.001Z,0
2016-05-09T01:47:36.614Z,0
2016-05-09T01:48:36.366Z,0
2016-05-09T01:49:37.431Z,0
2016-05-09T01:50:36.808Z,0
2016-05-09T01:51:36.750Z,0
2016-05-09T01:52:36.502Z,0
2016-05-09T01:53:36.442Z,0
2016-05-09T01:54:36.241Z,0
2016-05-09T01:55:36.213Z,0
2016-05-09T01:56:36.638Z,0
2016-05-09T01:57:36.469Z,0
2016-05-09T01:58:38.455Z,0
2016-05-09T01:59:36.708Z,0
2016-05-09T02:00:35.835Z,0
2016-05-09T02:01:35.994Z,0
2016-05-09T02:02:36.044Z,0
2016-05-09T02:03:35.954Z,0
2016-05-09T02:04:36.113Z,0
2016-05-09T02:05:36.552Z,0
2016-05-09T02:06:35.836Z,0
2016-05-09T02:07:36.182Z,0
2016-05-09T02:08:36.499Z,0
2016-05-09T02:09:36.563Z,0
2016-05-09T02:10:37.660Z,0
2016-05-09T02:11:35.959Z,0
2016-05-09T02:12:36.243Z,0
2016-05-09T02:13:35.761Z,0
2016-05-09T02:14:35.671Z,0
2016-05-09T02:15:36.079Z,0
2016-05-09T02:16:36.660Z,0
2016-05-09T02:17:37.944Z,0
2016-05-09T02:18:36.650Z,0
2016-05-09T02:19:36.324Z,0
2016-05-09T02:20:35.874Z,0
2016-05-09T02:21:36.111Z,0
2016-05-09T02:22:36.098Z,0
2016-05-09T02:23:35.638Z,0
2016-05-09T02:24:35.954Z,0
2016-05-09T02:25:36.628Z,0
2016-05-09T02:26:36.147Z,0
2016-05-09T02:27:35.650Z,0
2016-05-09T02:28:38.387Z,0
2016-05-09T02:29:36.248Z,0
2016-05-09T02:30:35.610Z,0
2016-05-09T02:31:35.270Z,0
2016-05-09T02:32:35.491Z,0
2016-05-09T02:33:35.869Z,0
2016-05-09T02:34:36.543Z,0
2016-05-09T02:35:35.921Z,0
2016-05-09T02:36:35.376Z,0
2016-05-09T02:37:35.583Z,0
2016-05-09T02:38:35.398Z,0
2016-05-09T02:39:35.573Z,0
2016-05-09T02:40:36.247Z,0
2016-05-09T02:41:35.422Z,0
2016-05-09T02:42:35.300Z,0
2016-05-09T02:43:35.567Z,0
2016-05-09T02:44:35.070Z,0
2016-05-09T02:45:35.464Z,0
2016-05-09T02:46:35.200Z,0
2016-05-09T02:47:36.328Z,0
2016-05-09T02:48:35.378Z,0
2016-05-09T02:49:35.225Z,0
2016-05-09T02:50:35.180Z,0
2016-05-09T02:51:35.996Z,0
2016-05-09T02:52:35.779Z,0
2016-05-09T02:53:35.610Z,0
2016-05-09T02:54:35.846Z,0
2016-05-09T02:55:35.288Z,0
2016-05-09T02:56:34.868Z,0
2016-05-09T02:57:36.074Z,0
2016-05-09T02:58:34.967Z,0
2016-05-09T02:59:35.252Z,0
2016-05-09T03:00:34.957Z,0
2016-05-09T03:01:35.101Z,0
2016-05-09T03:02:34.978Z,0
2016-05-09T03:03:35.606Z,0
2016-05-09T03:04:35.451Z,0
2016-05-09T03:05:36.329Z,0
2016-05-09T03:06:35.364Z,0
2016-05-09T03:07:34.820Z,0
2016-05-09T03:08:34.994Z,0
2016-05-09T03:09:36.420Z,0
2016-05-09T03:10:34.453Z,0
2016-05-09T03:11:35.049Z,0
2016-05-09T03:12:35.473Z,0
2016-05-09T03:13:35.039Z,0
2016-05-09T03:14:35.698Z,0
2016-05-09T03:15:35.325Z,0
2016-05-09T03:16:35.281Z,0
2016-05-09T03:17:35.191Z,0
2016-05-09T03:18:35.302Z,0
2016-05-09T03:19:35.430Z,4
2016-05-09T03:20:36.308Z,0
2016-05-09T03:21:35.592Z,0
2016-05-09T03:22:34.829Z,0
2016-05-09T03:23:34.910Z,4
2016-05-09T03:24:34.896Z,4
2016-05-09T03:25:35.337Z,0
2016-05-09T03:26:34.402Z,4
2016-05-09T03:27:34.858Z,4
2016-05-09T03:28:34.424Z,4
2016-05-09T03:29:34.566Z,4
2016-05-09T03:30:34.397Z,4
2016-05-09T03:31:34.462Z,4
2016-05-09T03:32:34.090Z,8
2016-05-09T03:33:34.483Z,8
2016-05-09T03:34:34.487Z,8
2016-05-09T03:35:34.582Z,8
2016-05-09T03:36:34.226Z,8
2016-05-09T03:37:34.665Z,12
2016-05-09T03:38:34.123Z,16
2016-05-09T03:39:34.593Z,12
2016-05-09T03:40:34.299Z,16
2016-05-09T03:41:34.411Z,16
2016-05-09T03:42:34.070Z,20
2016-05-09T03:43:34.150Z,24
2016-05-09T03:44:33.779Z,24
2016-05-09T03:45:34.219Z,28
2016-05-09T03:46:34.065Z,28
2016-05-09T03:47:34.349Z,36
2016-05-09T03:48:34.117Z,36
2016-05-09T03:49:40.480Z,40
2016-05-09T03:50:41.404Z,44
2016-05-09T03:51:36.813Z,48
2016-05-09T03:52:33.847Z,48
2016-05-09T03:53:33.974Z,56
2016-05-09T03:54:33.852Z,60
2016-05-09T03:55:33.871Z,64
2016-05-09T03:56:33.842Z,68
2016-05-09T03:57:34.126Z,72
2016-05-09T03:58:33.597Z,76
2016-05-09T03:59:34.006Z,80
2016-05-09T04:00:33.775Z,80
2016-05-09T04:01:33.715Z,88
2016-05-09T04:02:33.718Z,96
2016-05-09T04:03:33.939Z,96
2016-05-09T04:04:33.629Z,104
2016-05-09T04:05:33.475Z,108
2016-05-09T04:06:33.541Z,112
2016-05-09T04:07:33.621Z,120
2016-05-09T04:08:33.249Z,124
2016-05-09T04:09:33.751Z,128
2016-05-09T04:10:33.395Z,136
2016-05-09T04:11:33.866Z,140
2016-05-09T04:12:33.667Z,148
2016-05-09T04:13:33.451Z,156
2016-05-09T04:14:33.453Z,160
2016-05-09T04:15:33.627Z,168
2016-05-09T04:16:33.364Z,176
2016-05-09T04:17:33.508Z,184
2016-05-09T04:18:33.355Z,188
2016-05-09T04:19:33.217Z,196
2016-05-09T04:20:33.313Z,200
2016-05-09T04:21:33.283Z,204
2016-05-09T04:22:33.271Z,212
2016-05-09T04:23:33.164Z,216
2016-05-09T04:24:33.246Z,224
2016-05-09T04:25:33.077Z,232
2016-05-09T04:26:33.204Z,236
2016-05-09T04:27:33.535Z,244
2016-05-09T04:28:33.163Z,252
2016-05-09T04:29:33.165Z,256
2016-05-09T04:30:33.277Z,264
2016-05-09T04:31:33.061Z,272
2016-05-09T04:32:32.907Z,280
2016-05-09T04:33:33.316Z,288
2016-05-09T04:34:33.069Z,296
2016-05-09T04:35:33.165Z,300
2016-05-09T04:36:33.090Z,308
2016-05-09T04:37:32.984Z,316
2016-05-09T04:38:32.752Z,320
2016-05-09T04:39:33.114Z,328
2016-05-09T04:40:32.695Z,336
2016-05-09T04:41:32.666Z,340
2016-05-09T04:42:33.106Z,348
2016-05-09T04:43:32.859Z,352
2016-05-09T04:44:32.831Z,356
2016-05-09T04:45:33.084Z,360
2016-05-09T04:46:32.836Z,364
2016-05-09T04:47:32.775Z,372
2016-05-09T04:48:32.997Z,380
2016-05-09T04:49:32.595Z,380
2016-05-09T04:50:32.502Z,388
2016-05-09T04:51:32.787Z,392
2016-05-09T04:52:32.680Z,396
2016-05-09T04:53:32.652Z,400
2016-05-09T04:54:32.654Z,408
2016-05-09T04:55:32.611Z,412
2016-05-09T04:56:32.597Z,416
2016-05-09T04:57:33.006Z,420
2016-05-09T04:58:32.508Z,424
2016-05-09T04:59:32.511Z,428
2016-05-09T05:00:32.592Z,432
2016-05-09T05:01:32.549Z,436
2016-05-09T05:02:32.441Z,440
2016-05-09T05:03:32.507Z,448
2016-05-09T05:04:32.509Z,448
2016-05-09T05:05:32.356Z,456
2016-05-09T05:06:32.702Z,456
2016-05-09T05:07:32.315Z,460
2016-05-09T05:08:32.176Z,468
2016-05-09T05:09:32.538Z,468
2016-05-09T05:10:32.354Z,472
2016-05-09T05:11:32.122Z,476
2016-05-09T05:12:35.468Z,480
2016-05-09T05:13:32.034Z,480
2016-05-09T05:14:32.223Z,484
2016-05-09T05:15:32.148Z,488
2016-05-09T05:16:32.103Z,496
2016-05-09T05:17:32.279Z,496
2016-05-09T05:18:32.484Z,504
2016-05-09T05:19:32.081Z,508
2016-05-09T05:20:32.052Z,512
2016-05-09T05:21:31.930Z,516
2016-05-09T05:22:32.041Z,520
2016-05-09T05:23:31.842Z,524
2016-05-09T05:24:32.251Z,528
2016-05-09T05:25:31.988Z,536
2016-05-09T05:26:31.802Z,536
2016-05-09T05:27:32.133Z,536
2016-05-09T05:28:31.902Z,544
2016-05-09T05:29:31.983Z,548
2016-05-09T05:30:31.767Z,548
2016-05-09T05:31:31.879Z,552
2016-05-09T05:32:31.474Z,560
2016-05-09T05:33:31.884Z,560
2016-05-09T05:34:31.465Z,564
2016-05-09T05:35:31.796Z,564
2016-05-09T05:36:32.080Z,576
2016-05-09T05:37:31.770Z,572
2016-05-09T05:38:32.148Z,580
2016-05-09T05:39:31.962Z,580
2016-05-09T05:40:31.543Z,584
2016-05-09T05:41:31.671Z,588
2016-05-09T05:42:31.987Z,592
2016-05-09T05:43:31.458Z,592
2016-05-09T05:44:31.664Z,596
2016-05-09T05:45:31.667Z,596
2016-05-09T05:46:31.638Z,600
2016-05-09T05:47:31.359Z,604
2016-05-09T05:48:31.768Z,608
2016-05-09T05:49:31.505Z,612
2016-05-09T05:50:31.195Z,616
2016-05-09T05:51:31.697Z,620
2016-05-09T05:52:31.294Z,620
2016-05-09T05:53:31.423Z,624
2016-05-09T05:54:31.691Z,628
2016-05-09T05:55:31.256Z,632
2016-05-09T05:56:31.539Z,636
2016-05-09T05:57:31.496Z,640
2016-05-09T05:58:45.498Z,644
2016-05-09T05:59:31.610Z,644
2016-05-09T06:00:31.515Z,644
2016-05-09T06:01:31.328Z,652
2016-05-09T06:02:31.499Z,652
2016-05-09T06:03:31.577Z,660
2016-05-09T06:04:31.327Z,656
2016-05-09T06:05:31.361Z,664
2016-05-09T06:06:31.442Z,664
2016-05-09T06:07:31.381Z,664
2016-05-09T06:08:31.400Z,664
2016-05-09T06:09:31.216Z,672
2016-05-09T06:10:31.240Z,672
2016-05-09T06:11:31.185Z,676
2016-05-09T06:12:31.569Z,680
2016-05-09T06:13:31.458Z,680
2016-05-09T06:14:31.544Z,680
2016-05-09T06:15:31.534Z,684
2016-05-09T06:16:31.303Z,684
2016-05-09T06:17:31.355Z,684
2016-05-09T06:18:31.501Z,692
2016-05-09T06:19:31.130Z,692
2016-05-09T06:20:31.258Z,692
2016-05-09T06:21:31.934Z,688
2016-05-09T06:22:31.140Z,688
2016-05-09T06:23:31.283Z,692
2016-05-09T06:24:31.116Z,696
2016-05-09T06:25:31.181Z,696
2016-05-09T06:26:31.231Z,696
2016-05-09T06:27:31.031Z,704
2016-05-09T06:28:30.892Z,704
2016-05-09T06:29:31.145Z,700
2016-05-09T06:30:31.429Z,704
2016-05-09T06:31:30.963Z,700
2016-05-09T06:32:31.215Z,700
2016-05-09T06:33:30.921Z,704
2016-05-09T06:34:31.236Z,708
2016-05-09T06:35:31.192Z,704
2016-05-09T06:36:31.086Z,704
2016-05-09T06:37:30.963Z,712
2016-05-09T06:38:30.919Z,712
2016-05-09T06:39:30.953Z,708
2016-05-09T06:40:30.768Z,712
2016-05-09T06:41:32.083Z,708
2016-05-09T06:42:31.258Z,708
2016-05-09T06:43:30.917Z,712
2016-05-09T06:44:30.421Z,712
2016-05-09T06:45:30.813Z,712
2016-05-09T06:46:30.707Z,720
2016-05-09T06:47:30.818Z,720
2016-05-09T06:48:30.868Z,724
2016-05-09T06:49:31.293Z,720
2016-05-09T06:50:30.904Z,720
2016-05-09T06:51:31.267Z,720
2016-05-09T06:52:30.941Z,728
2016-05-09T06:53:44.381Z,724
2016-05-09T06:54:31.322Z,732
2016-05-09T06:55:31.059Z,728
2016-05-09T06:56:31.062Z,736
2016-05-09T06:57:31.345Z,736
2016-05-09T06:58:31.020Z,732
2016-05-09T06:59:32.289Z,732
2016-05-09T07:00:31.119Z,736
2016-05-09T07:01:30.653Z,736
2016-05-09T07:02:30.577Z,748
2016-05-09T07:03:31.111Z,736
2016-05-09T07:04:30.958Z,744
2016-05-09T07:05:31.819Z,752
2016-05-09T07:06:31.058Z,748
2016-05-09T07:07:31.341Z,752
2016-05-09T07:08:30.906Z,752
2016-05-09T07:09:31.112Z,760
2016-05-09T07:10:44.036Z,760
2016-05-09T07:11:30.539Z,764
2016-05-09T07:12:44.027Z,756
2016-05-09T07:13:31.655Z,768
2016-05-09T07:14:44.235Z,776
2016-05-09T07:15:31.113Z,780
2016-05-09T07:16:30.927Z,776
2016-05-09T07:17:31.540Z,788
2016-05-09T07:18:32.449Z,796
2016-05-09T07:19:32.545Z,792
2016-05-09T07:20:31.767Z,804
2016-05-09T07:21:31.113Z,784
2016-05-09T07:22:31.506Z,816
2016-05-09T07:23:31.884Z,812
2016-05-09T07:24:30.778Z,824
2016-05-09T07:25:44.343Z,832
2016-05-09T07:26:32.126Z,832
2016-05-09T07:27:31.629Z,836
2016-05-09T07:28:31.429Z,844
2016-05-09T07:29:30.729Z,856
2016-05-09T07:30:33.684Z,856
2016-05-09T07:31:32.733Z,856
2016-05-09T07:32:31.175Z,848
2016-05-09T07:33:30.942Z,852
2016-05-09T07:34:33.008Z,872
2016-05-09T07:35:31.042Z,860
2016-05-09T07:36:31.966Z,860
2016-05-09T07:37:32.156Z,860
2016-05-09T07:38:30.581Z,864
2016-05-09T07:39:33.364Z,872
2016-05-09T07:40:31.258Z,868
2016-05-09T07:41:31.339Z,884
2016-05-09T07:42:57.466Z,888
2016-05-09T07:43:33.000Z,900
2016-05-09T07:44:30.785Z,896
2016-05-09T07:45:30.615Z,896
2016-05-09T07:46:30.758Z,928
2016-05-09T07:47:29.680Z,928
2016-05-09T07:48:30.482Z,924
2016-05-09T07:49:31.361Z,948
2016-05-09T07:50:29.721Z,928
2016-05-09T07:51:29.556Z,956
2016-05-09T07:52:29.762Z,964
2016-05-09T07:53:30.171Z,956
2016-05-09T07:54:30.126Z,968
2016-05-09T07:55:29.607Z,972
2016-05-09T07:56:29.766Z,968
2016-05-09T07:57:31.162Z,980
2016-05-09T07:58:30.318Z,984
2016-05-09T07:59:30.996Z,984
2016-05-09T08:00:30.873Z,984
2016-05-09T08:01:29.935Z,984
2016-05-09T08:02:29.766Z,984
2016-05-09T08:03:31.053Z,988
2016-05-09T08:04:29.974Z,988
2016-05-09T08:05:34.918Z,996
2016-05-09T08:06:34.686Z,1008
2016-05-09T08:07:38.798Z,1000
2016-05-09T08:08:41.082Z,1012
2016-05-09T08:09:32.101Z,1008
2016-05-09T08:10:34.744Z,1012
2016-05-09T08:11:45.934Z,1024
2016-05-09T08:12:31.200Z,1012
2016-05-09T08:13:30.593Z,1016
2016-05-09T08:14:30.689Z,1016
2016-05-09T08:15:29.723Z,1020
2016-05-09T08:16:30.226Z,1044
2016-05-09T08:17:30.401Z,1016
2016-05-09T08:18:31.107Z,1016
2016-05-09T08:19:30.125Z,1028
2016-05-09T08:20:29.971Z,1024
2016-05-09T08:21:29.662Z,1024
2016-05-09T08:22:30.648Z,1040
2016-05-09T08:23:29.729Z,1040
2016-05-09T08:24:43.673Z,1052
2016-05-09T08:25:29.532Z,1044
2016-05-09T08:26:29.034Z,1032
2016-05-09T08:27:29.678Z,1044
2016-05-09T08:28:29.961Z,1036
2016-05-09T08:29:30.714Z,1036
2016-05-09T08:30:29.217Z,1064
2016-05-09T08:31:33.300Z,1044
2016-05-09T08:32:28.566Z,1036
2016-05-09T08:33:28.600Z,1032
2016-05-09T08:34:28.712Z,1048
2016-05-09T08:35:28.433Z,1028
2016-05-09T08:36:32.405Z,1032
2016-05-09T08:37:29.221Z,1040
2016-05-09T08:38:28.598Z,1016
2016-05-09T08:39:28.959Z,1016
2016-05-09T08:40:29.431Z,1012
2016-05-09T08:41:30.497Z,1004
2016-05-09T08:42:28.577Z,1032
2016-05-09T08:43:28.752Z,1008
2016-05-09T08:44:28.598Z,1012
2016-05-09T08:45:29.835Z,1028
2016-05-09T08:46:28.495Z,1028
2016-05-09T08:47:28.512Z,1032
2016-05-09T08:48:28.547Z,1008
2016-05-09T08:49:29.081Z,1036
2016-05-09T08:50:28.333Z,1012
2016-05-09T08:51:28.570Z,1036
2016-05-09T08:52:28.589Z,1020
2016-05-09T08:53:28.639Z,1024
2016-05-09T08:54:29.484Z,1040
2016-05-09T08:55:42.381Z,1048
2016-05-09T08:56:28.662Z,1060
2016-05-09T08:57:28.914Z,1000
2016-05-09T08:58:28.277Z,1032
2016-05-09T08:59:28.358Z,1064
2016-05-09T09:00:28.063Z,1076
2016-05-09T09:01:29.910Z,1080
2016-05-09T09:02:30.960Z,1068
2016-05-09T09:03:28.930Z,1092
2016-05-09T09:04:42.436Z,1092
2016-05-09T09:05:29.233Z,1088
2016-05-09T09:06:29.345Z,1076
2016-05-09T09:07:30.941Z,1104
2016-05-09T09:08:37.525Z,1112
2016-05-09T09:09:30.322Z,1096
2016-05-09T09:10:28.371Z,1092
2016-05-09T09:11:28.014Z,1064
2016-05-09T09:12:29.704Z,1076
2016-05-09T09:13:28.646Z,1072
2016-05-09T09:14:28.663Z,1084
2016-05-09T09:15:27.916Z,1056
2016-05-09T09:16:28.263Z,1048
2016-05-09T09:17:28.093Z,1044
2016-05-09T09:18:28.049Z,1060
2016-05-09T09:19:28.912Z,1040
2016-05-09T09:20:28.195Z,1044
2016-05-09T09:21:28.682Z,1036
2016-05-09T09:22:28.091Z,1052
2016-05-09T09:23:31.125Z,1064
2016-05-09T09:24:28.112Z,1060
2016-05-09T09:25:28.053Z,1056
2016-05-09T09:26:27.883Z,1068
2016-05-09T09:27:32.355Z,1092
2016-05-09T09:28:29.686Z,1064
2016-05-09T09:29:27.969Z,1108
2016-05-09T09:30:30.378Z,1116
2016-05-09T09:31:29.865Z,1116
2016-05-09T09:32:42.168Z,1096
2016-05-09T09:33:32.339Z,1120
2016-05-09T09:34:41.580Z,1120
2016-05-09T09:35:28.111Z,1124
2016-05-09T09:36:27.801Z,1112
2016-05-09T09:38:28.275Z,1092
2016-05-09T09:39:28.230Z,1124
2016-05-09T09:40:32.421Z,1128
2016-05-09T09:41:28.283Z,1128
2016-05-09T09:42:27.567Z,1120
2016-05-09T09:43:28.882Z,1108
2016-05-09T09:44:28.884Z,1096
2016-05-09T09:45:41.281Z,1104
2016-05-09T09:46:30.781Z,1096
2016-05-09T09:47:27.361Z,1108
2016-05-09T09:48:27.912Z,1096
2016-05-09T09:49:28.289Z,1092
2016-05-09T09:50:27.823Z,1100
2016-05-09T09:51:27.450Z,1076
2016-05-09T09:52:42.378Z,1040
2016-05-09T09:53:27.612Z,1088
2016-05-09T09:54:41.665Z,1040
2016-05-09T09:55:29.040Z,1040
2016-05-09T09:56:30.542Z,1044
2016-05-09T09:57:28.592Z,1044
2016-05-09T09:58:27.922Z,1048
2016-05-09T09:59:28.253Z,1032
2016-05-09T10:00:28.161Z,1016
2016-05-09T10:01:41.153Z,1032
2016-05-09T10:02:27.590Z,1044
2016-05-09T10:03:41.580Z,1048
2016-05-09T10:04:27.798Z,1052
2016-05-09T10:05:27.489Z,1024
2016-05-09T10:06:32.382Z,1028
2016-05-09T10:07:28.196Z,1036
2016-05-09T10:08:27.043Z,1056
2016-05-09T10:09:28.077Z,1024
2016-05-09T10:10:27.985Z,1016
2016-05-09T10:11:27.941Z,1036
2016-05-09T10:12:27.523Z,1076
2016-05-09T10:13:31.588Z,1064
2016-05-09T10:14:27.154Z,1056
2016-05-09T10:15:27.140Z,1096
2016-05-09T10:16:33.346Z,1044
2016-05-09T10:17:28.818Z,1080
2016-05-09T10:18:28.820Z,1076
2016-05-09T10:19:29.588Z,1076
2016-05-09T10:20:27.170Z,1088
2016-05-09T10:21:28.703Z,1044
2016-05-09T10:23:26.834Z,1068
2016-05-09T10:24:28.555Z,1084
2016-05-09T10:25:27.948Z,1088
2016-05-09T10:26:27.201Z,1072
2016-05-09T10:27:27.016Z,1072
2016-05-09T10:28:26.847Z,1072
2016-05-09T10:29:41.806Z,1076
2016-05-09T10:30:41.292Z,1072
2016-05-09T10:31:26.589Z,1080
2016-05-09T10:32:29.764Z,1060
2016-05-09T10:33:26.985Z,1072
2016-05-09T10:34:30.614Z,1080
2016-05-09T10:35:26.772Z,1064
2016-05-09T10:36:28.056Z,1072
2016-05-09T10:37:27.355Z,1092
2016-05-09T10:38:31.858Z,1084
2016-05-09T10:39:40.441Z,1092
2016-05-09T10:40:27.176Z,1104
2016-05-09T10:41:29.022Z,1116
2016-05-09T10:42:40.278Z,1120
2016-05-09T10:43:27.013Z,1136
2016-05-09T10:44:27.155Z,1156
2016-05-09T10:45:27.971Z,1128
2016-05-09T10:46:27.051Z,1148
2016-05-09T10:47:26.835Z,1152
2016-05-09T10:48:26.916Z,1152
2016-05-09T10:49:26.982Z,1148
2016-05-09T10:50:26.796Z,1168
2016-05-09T10:51:26.956Z,1164
2016-05-09T10:52:29.661Z,1176
2016-05-09T10:53:41.292Z,1180
2016-05-09T10:54:30.964Z,1172
2016-05-09T10:55:30.592Z,1180
2016-05-09T10:56:26.017Z,1204
2016-05-09T10:57:27.675Z,1196
2016-05-09T10:58:27.490Z,1188
2016-05-09T10:59:28.133Z,1212
2016-05-09T11:00:41.530Z,1208
2016-05-09T11:01:27.092Z,1204
2016-05-09T11:02:27.813Z,1200
2016-05-09T11:03:27.081Z,1212
2016-05-09T11:04:27.241Z,1212
2016-05-09T11:05:30.446Z,1208
2016-05-09T11:06:27.152Z,1216
2016-05-09T11:07:28.436Z,1200
2016-05-09T11:08:27.705Z,1212
2016-05-09T11:09:27.894Z,1204
2016-05-09T11:10:41.649Z,1272
2016-05-09T11:11:26.384Z,1260
2016-05-09T11:12:27.027Z,1276
2016-05-09T11:13:28.078Z,1260
2016-05-09T11:14:28.424Z,1288
2016-05-09T11:15:30.646Z,1288
2016-05-09T11:16:26.679Z,1312
2016-05-09T11:17:27.228Z,1312
2016-05-09T11:18:29.215Z,1300
2016-05-09T11:19:27.515Z,1316
2016-05-09T11:20:28.377Z,1328
2016-05-09T11:21:27.004Z,1336
2016-05-09T11:22:26.961Z,1340
2016-05-09T11:23:26.870Z,1360
2016-05-09T11:24:30.529Z,1352
2016-05-09T11:25:39.938Z,1360
2016-05-09T11:26:27.175Z,1364
2016-05-09T11:27:26.006Z,1372
2016-05-09T11:28:26.009Z,1392
2016-05-09T11:29:27.073Z,1372
2016-05-09T11:30:27.591Z,1380
2016-05-09T11:31:30.689Z,1396
2016-05-09T11:32:26.456Z,1412
2016-05-09T11:33:42.946Z,1416
2016-05-09T11:34:40.493Z,1416
2016-05-09T11:35:25.855Z,1436
2016-05-09T11:36:26.592Z,1468
2016-05-09T11:37:26.548Z,1448
2016-05-09T11:38:26.551Z,1464
2016-05-09T11:39:27.194Z,1444
2016-05-09T11:40:27.728Z,1492
2016-05-09T11:41:26.888Z,1596
2016-05-09T11:42:26.499Z,1540
2016-05-09T11:43:34.893Z,1980
2016-05-09T11:44:27.724Z,2888
2016-05-09T11:45:25.632Z,11124
2016-05-09T11:46:29.088Z,1512
2016-05-09T11:47:26.043Z,1664
2016-05-09T11:48:26.235Z,1684
2016-05-09T11:49:25.768Z,9304
2016-05-09T11:50:39.832Z,1500
2016-05-09T11:51:25.382Z,1820
2016-05-09T11:52:31.120Z,2028
2016-05-09T11:53:25.373Z,1552
2016-05-09T12:01:03.081Z,1848
2016-05-09T12:01:36.644Z,1868
2016-05-09T12:02:35.412Z,30784
2016-05-09T12:03:48.590Z,33472
2016-05-09T12:04:49.045Z,44672
2016-05-09T12:06:34.969Z,37664
2016-05-09T12:07:34.566Z,24192
2016-05-09T12:08:35.070Z,7872
2016-05-09T12:09:34.541Z,5392
2016-05-09T12:10:34.590Z,36000
2016-05-09T12:11:34.343Z,5188
2016-05-09T12:12:35.173Z,23712
2016-05-09T12:13:34.442Z,10720
2016-05-09T12:14:34.616Z,4280
2016-05-09T12:15:34.604Z,3008
2016-05-09T12:16:34.543Z,2888
2016-05-09T12:17:34.249Z,2904
2016-05-09T12:18:35.049Z,2936
2016-05-09T12:19:34.302Z,3016
2016-05-09T12:20:34.492Z,3248
2016-05-09T12:21:34.120Z,3384
2016-05-09T12:22:34.138Z,3720
2016-05-09T12:23:34.454Z,3892
2016-05-09T12:24:34.831Z,3768
2016-05-09T12:25:34.223Z,4288
2016-05-09T12:26:34.945Z,4392
2016-05-09T12:27:34.511Z,5084
2016-05-09T12:28:34.342Z,5168
2016-05-09T12:29:35.079Z,6832
2016-05-09T12:30:34.253Z,8276
2016-05-09T12:31:34.272Z,6820
2016-05-09T12:32:34.306Z,7516
2016-05-09T12:33:34.074Z,7140
2016-05-09T12:34:34.233Z,23968
2016-05-09T12:35:33.970Z,56800
2016-05-09T12:36:35.019Z,53824
2016-05-09T12:37:34.741Z,31296
2016-05-09T12:38:34.041Z,3220
2016-05-09T12:39:34.027Z,2836
2016-05-09T12:40:33.827Z,8700
2016-05-09T12:41:34.220Z,2580
2016-05-09T12:42:34.598Z,2580
2016-05-09T12:43:34.632Z,2644
2016-05-09T12:44:35.415Z,2484
2016-05-09T12:45:33.825Z,2636
2016-05-09T12:46:33.953Z,3944
2016-05-09T12:47:34.877Z,3240
2016-05-09T12:48:34.458Z,6520
2016-05-09T12:49:33.898Z,6172
2016-05-09T12:50:34.042Z,4120
2016-05-09T12:51:35.982Z,3736
2016-05-09T12:52:33.891Z,2504
2016-05-09T12:53:33.924Z,2872
2016-05-09T12:54:33.833Z,2752
2016-05-09T12:55:34.790Z,2648
2016-05-09T12:56:34.152Z,4276
2016-05-09T12:57:34.576Z,3208
2016-05-09T13:07:57.528Z,3332
2016-05-09T13:08:44.747Z,3504
2016-05-09T13:09:43.061Z,3608
2016-05-09T13:10:43.767Z,14024
2016-05-09T13:11:43.097Z,4864
2016-05-09T13:12:42.850Z,3768
2016-05-09T13:13:43.556Z,4152
2016-05-09T13:14:44.138Z,5028
2016-05-09T13:15:43.078Z,8956
2016-05-09T13:16:43.033Z,30496
2016-05-09T13:17:43.036Z,34080
2016-05-09T13:18:42.960Z,25248
2016-05-09T13:19:43.464Z,18592
2016-05-09T13:22:37.080Z,29536
2016-05-09T13:23:09.458Z,12440
2016-05-09T13:24:09.492Z,17824
2016-05-09T13:25:10.058Z,28896
2016-05-09T13:26:09.529Z,25120
2016-05-09T13:27:09.876Z,13532
2016-05-09T13:28:09.456Z,18496
2016-05-09T13:29:09.459Z,34720
2016-05-09T13:30:09.837Z,46688
2016-05-09T13:31:09.465Z,71968
2016-05-09T13:32:09.420Z,64352
2016-05-09T13:33:09.439Z,71328
2016-05-09T13:34:09.378Z,76640
2016-05-09T13:35:09.038Z,73376
2016-05-09T13:36:10.009Z,55936
2016-05-09T13:37:11.231Z,91808
2016-05-09T13:38:09.373Z,89088
2016-05-09T13:39:09.126Z,71136
2016-05-09T13:40:09.332Z,64192
2016-05-09T13:41:09.178Z,71456
2016-05-09T13:42:09.650Z,77440
2016-05-09T13:43:09.137Z,76000
2016-05-09T13:44:09.499Z,57408
2016-05-09T13:45:09.705Z,73504
2016-05-09T13:46:09.724Z,76000
2016-05-09T13:47:09.929Z,76832
2016-05-09T13:48:09.916Z,69888
2016-05-09T13:49:11.402Z,25856
2016-05-09T13:50:10.062Z,69152
2016-05-09T13:51:09.283Z,27936
2016-05-09T13:52:09.318Z,26720
2016-05-09T13:53:09.102Z,38560
2016-05-09T13:54:09.213Z,16048
2016-05-09T13:55:09.638Z,11920
2016-05-09T13:56:09.235Z,9804
2016-05-09T13:57:09.238Z,28512
2016-05-09T13:58:09.162Z,7788
2016-05-09T13:59:09.759Z,9124
2016-05-09T14:00:09.136Z,8460
2016-05-09T14:01:09.779Z,8960
2016-05-09T14:02:09.142Z,11300
2016-05-09T14:03:09.395Z,9852
2016-05-09T14:04:09.225Z,9484
2016-05-09T14:05:08.978Z,12912
2016-05-09T14:06:09.762Z,11764
2016-05-09T14:07:10.467Z,14380
2016-05-09T14:08:09.533Z,11232